createdAt,value
2023-05-05T04:53:15.670Z,70.59
2023-05-05T04:54:15.630Z,71.00
2023-05-05T04:55:15.594Z,71.20
2023-05-05T04:56:15.602Z,71.80
2023-05-05T04:57:15.570Z,71.80
2023-05-05T04:58:15.567Z,71.84
2023-05-05T04:59:15.560Z,71.91
2023-05-05T05:00:15.548Z,71.80
2023-05-05T05:01:15.527Z,71.80
2023-05-05T05:02:15.575Z,71.70
2023-05-05T05:03:15.597Z,71.30
2023-05-05T05:04:20.514Z,71.67
2023-05-05T05:05:15.479Z,71.37
2023-05-05T05:06:15.479Z,71.77
2023-05-05T05:07:15.458Z,72.21
2023-05-05T05:08:15.478Z,71.80
2023-05-05T05:09:15.462Z,72.11
2023-05-05T05:10:15.442Z,71.80
2023-05-05T05:11:15.440Z,71.57
2023-05-05T05:12:15.412Z,71.67
2023-05-05T05:13:15.495Z,71.57
2023-05-05T05:14:15.386Z,71.37
2023-05-05T05:15:20.459Z,70.93
2023-05-05T05:16:15.388Z,70.42
2023-05-05T05:17:15.353Z,70.62
2023-05-05T05:18:15.337Z,70.42
2023-05-05T05:19:15.328Z,70.42
2023-05-05T05:20:15.338Z,70.52
2023-05-05T05:21:15.305Z,70.49
2023-05-05T05:22:15.302Z,70.49
2023-05-05T05:23:15.278Z,70.69
2023-05-05T05:24:15.274Z,70.05
2023-05-05T05:25:15.278Z,69.85
2023-05-05T05:26:20.301Z,69.55
2023-05-05T05:27:15.245Z,70.05
2023-05-05T05:28:15.222Z,70.05
2023-05-05T05:29:15.221Z,69.95
2023-05-05T05:30:15.208Z,69.85
2023-05-05T05:31:15.200Z,70.46
2023-05-05T05:32:15.216Z,70.29
2023-05-05T05:33:15.168Z,71.60
2023-05-05T05:34:15.189Z,71.50
2023-05-05T05:35:15.144Z,71.30
2023-05-05T05:36:15.148Z,71.47
2023-05-05T05:37:20.161Z,70.46
2023-05-05T05:38:15.123Z,70.76
2023-05-05T05:39:15.114Z,70.15
2023-05-05T05:40:15.095Z,70.22
2023-05-05T05:41:15.106Z,70.66
2023-05-05T05:42:15.071Z,70.46
2023-05-05T05:43:15.053Z,70.46
2023-05-05T05:44:15.048Z,70.96
2023-05-05T05:45:15.061Z,71.47
2023-05-05T05:46:15.169Z,71.77
2023-05-05T05:47:15.011Z,72.28
2023-05-05T05:48:20.024Z,72.17
2023-05-05T05:49:14.988Z,71.67
2023-05-05T05:50:14.987Z,71.77
2023-05-05T05:51:14.976Z,71.77
2023-05-05T05:52:14.955Z,72.28
2023-05-05T05:53:14.948Z,72.08
2023-05-05T05:54:14.930Z,72.08
2023-05-05T05:55:14.931Z,71.87
2023-05-05T05:56:14.962Z,72.08
2023-05-05T05:57:14.935Z,71.77
2023-05-05T05:58:14.890Z,72.48
2023-05-05T05:59:19.904Z,72.17
2023-05-05T06:00:14.886Z,72.58
2023-05-05T06:01:14.869Z,72.78
2023-05-05T06:02:14.891Z,71.97
2023-05-05T06:03:15.025Z,72.78
2023-05-05T06:04:14.844Z,71.84
2023-05-05T06:05:14.837Z,71.94
2023-05-05T06:06:14.792Z,71.84
2023-05-05T06:07:14.782Z,72.24
2023-05-05T06:08:14.769Z,71.94
2023-05-05T06:09:14.769Z,71.53
2023-05-05T06:11:14.748Z,71.30
2023-05-05T06:12:14.731Z,70.89
2023-05-05T06:13:14.795Z,71.50
2023-05-05T06:14:14.726Z,71.50
2023-05-05T06:15:14.695Z,71.40
2023-05-05T06:16:14.722Z,71.20
2023-05-05T06:17:14.697Z,69.95
2023-05-05T06:18:14.713Z,70.26
2023-05-05T06:19:14.657Z,69.72
2023-05-05T06:20:14.659Z,70.32
2023-05-05T06:21:19.651Z,69.92
2023-05-05T06:22:14.616Z,70.02
2023-05-05T06:23:14.631Z,69.62
2023-05-05T06:24:14.613Z,69.42
2023-05-05T06:25:14.579Z,69.31
2023-05-05T06:26:14.566Z,70.02
2023-05-05T06:27:14.587Z,70.32
2023-05-05T06:28:14.560Z,69.68
2023-05-05T06:29:14.566Z,69.92
2023-05-05T06:30:14.564Z,69.38
2023-05-05T06:31:14.569Z,69.79
2023-05-05T06:32:19.524Z,69.68
2023-05-05T06:33:14.514Z,69.59
2023-05-05T06:34:14.516Z,69.59
2023-05-05T06:35:14.478Z,69.89
2023-05-05T06:36:14.542Z,69.68
2023-05-05T06:37:14.449Z,70.09
2023-05-05T06:38:14.448Z,69.89
2023-05-05T06:39:16.019Z,69.89
2023-05-05T06:40:14.415Z,69.89
2023-05-05T06:41:14.404Z,69.89
2023-05-05T06:42:14.414Z,69.89
2023-05-05T06:43:19.419Z,69.89
2023-05-05T06:44:14.373Z,69.92
2023-05-05T06:45:14.391Z,69.68
2023-05-05T06:46:14.399Z,70.32
2023-05-05T06:47:14.358Z,70.32
2023-05-05T06:48:14.330Z,69.92
2023-05-05T06:49:14.319Z,70.39
2023-05-05T06:50:14.318Z,70.22
2023-05-05T06:51:14.298Z,70.22
2023-05-05T06:52:14.289Z,70.29
2023-05-05T06:53:14.270Z,70.29
2023-05-05T06:54:19.297Z,69.89
2023-05-05T06:55:14.249Z,69.68
2023-05-05T06:56:14.249Z,70.06
2023-05-05T06:57:14.242Z,69.85
2023-05-05T06:58:14.237Z,69.85
2023-05-05T06:59:14.206Z,69.72
2023-05-05T07:00:14.198Z,69.72
2023-05-05T07:01:14.309Z,70.02
2023-05-05T07:02:14.190Z,69.42
2023-05-05T07:03:14.313Z,69.79
2023-05-05T07:04:14.515Z,69.29
2023-05-05T07:05:19.164Z,68.98
2023-05-05T07:06:14.141Z,68.98
2023-05-05T07:07:14.150Z,68.88
2023-05-05T07:08:14.101Z,68.35
2023-05-05T07:09:16.390Z,68.75
2023-05-05T07:10:14.111Z,68.55
2023-05-05T07:11:14.483Z,68.35
2023-05-05T07:12:14.092Z,68.55
2023-05-05T07:13:14.132Z,68.44
2023-05-05T07:14:14.039Z,69.25
2023-05-05T07:15:26.745Z,68.88
2023-05-05T07:16:19.215Z,69.56
2023-05-05T07:17:14.022Z,69.25
2023-05-05T07:18:14.037Z,69.05
2023-05-05T07:19:13.994Z,68.95
2023-05-05T07:20:13.974Z,68.71
2023-05-05T07:21:13.976Z,68.31
2023-05-05T07:22:13.956Z,68.62
2023-05-05T07:23:13.954Z,68.62
2023-05-05T07:24:13.951Z,67.61
2023-05-05T07:25:13.933Z,67.78
2023-05-05T07:26:13.938Z,67.58
2023-05-05T07:27:18.920Z,67.98
2023-05-05T07:28:13.886Z,67.44
2023-05-05T07:29:13.966Z,67.85
2023-05-05T07:30:17.330Z,67.35
2023-05-05T07:31:13.857Z,67.14
2023-05-05T07:32:14.043Z,67.35
2023-05-05T07:33:13.843Z,67.35
2023-05-05T07:34:13.829Z,67.31
2023-05-05T07:35:13.838Z,67.24
2023-05-05T07:36:13.808Z,66.74
2023-05-05T07:37:13.789Z,67.21
2023-05-05T07:38:18.798Z,67.21
2023-05-05T07:39:13.772Z,67.11
2023-05-05T07:40:13.761Z,67.11
2023-05-05T07:41:13.741Z,66.71
2023-05-05T07:42:13.746Z,66.78
2023-05-05T07:43:13.717Z,66.47
2023-05-05T07:44:13.713Z,65.97
2023-05-05T07:45:13.701Z,66.51
2023-05-05T07:46:13.851Z,66.71
2023-05-05T07:47:13.670Z,66.71
2023-05-05T07:48:13.751Z,67.21
2023-05-05T07:49:18.680Z,67.74
2023-05-05T07:50:13.634Z,67.65
2023-05-05T07:51:13.633Z,67.61
2023-05-05T07:52:13.846Z,67.71
2023-05-05T07:53:15.089Z,67.71
2023-05-05T07:54:13.669Z,67.91
2023-05-05T07:55:13.592Z,68.21
2023-05-05T07:56:13.574Z,67.61
2023-05-05T07:57:13.563Z,67.48
2023-05-05T07:58:13.569Z,67.38
2023-05-05T07:59:13.549Z,66.95
2023-05-05T08:00:18.563Z,66.35
2023-05-05T08:01:13.520Z,66.64
2023-05-05T08:02:13.555Z,67.25
2023-05-05T08:03:13.586Z,66.82
2023-05-05T08:04:13.693Z,66.82
2023-05-05T08:05:13.490Z,66.55
2023-05-05T08:06:13.487Z,67.25
2023-05-05T08:07:13.456Z,66.61
2023-05-05T08:08:13.451Z,66.52
2023-05-05T08:09:13.434Z,66.52
2023-05-05T08:10:13.417Z,66.61
2023-05-05T08:11:18.451Z,66.18
2023-05-05T08:12:13.402Z,66.08
2023-05-05T08:13:13.484Z,65.28
2023-05-05T08:14:13.374Z,65.98
2023-05-05T08:15:13.357Z,65.65
2023-05-05T08:16:13.439Z,65.98
2023-05-05T08:17:13.346Z,66.28
2023-05-05T08:18:13.344Z,65.68
2023-05-05T08:19:27.522Z,65.58
2023-05-05T08:20:13.445Z,65.78
2023-05-05T08:21:13.452Z,65.58
2023-05-05T08:22:18.314Z,65.65
2023-05-05T08:23:13.286Z,65.85
2023-05-05T08:24:13.268Z,65.25
2023-05-05T08:25:13.346Z,65.55
2023-05-05T08:26:13.241Z,64.45
2023-05-05T08:27:13.240Z,64.81
2023-05-05T08:28:13.242Z,63.81
2023-05-05T08:29:13.207Z,63.61
2023-05-05T08:30:13.202Z,64.22
2023-05-05T08:31:13.321Z,62.78
2023-05-05T08:32:13.188Z,63.39
2023-05-05T08:33:18.219Z,62.55
2023-05-05T08:34:13.202Z,62.52
2023-05-05T08:35:13.490Z,61.79
2023-05-05T08:36:13.304Z,61.69
2023-05-05T08:37:13.141Z,61.29
2023-05-05T08:38:13.137Z,61.07
2023-05-05T08:39:13.100Z,60.46
2023-05-05T08:40:13.090Z,59.74
2023-05-05T08:41:13.092Z,58.94
2023-05-05T08:42:19.699Z,59.83
2023-05-05T08:43:13.061Z,58.54
2023-05-05T08:44:18.074Z,58.64
2023-05-05T08:45:13.145Z,58.81
2023-05-05T08:46:13.069Z,58.31
2023-05-05T08:47:13.022Z,58.81
2023-05-05T08:48:13.083Z,58.51
2023-05-05T08:49:12.986Z,58.31
2023-05-05T08:50:12.967Z,58.41
2023-05-05T08:51:12.975Z,57.98
2023-05-05T08:52:13.261Z,57.78
2023-05-05T08:53:12.941Z,56.38
2023-05-05T08:54:12.926Z,56.88
2023-05-05T08:55:18.082Z,56.68
2023-05-05T08:56:12.921Z,57.09
2023-05-05T08:57:12.908Z,56.66
2023-05-05T08:58:12.878Z,56.56
2023-05-05T08:59:12.868Z,56.76
2023-05-05T09:00:12.870Z,56.56
2023-05-05T09:01:12.915Z,56.56
2023-05-05T09:02:12.912Z,56.85
2023-05-05T09:03:12.927Z,56.33
2023-05-05T09:04:12.813Z,56.73
2023-05-05T09:05:12.813Z,56.76
2023-05-05T09:06:17.819Z,56.30
2023-05-05T09:07:12.792Z,55.80
2023-05-05T09:08:12.901Z,56.10
2023-05-05T09:09:12.761Z,55.51
2023-05-05T09:10:12.766Z,55.41
2023-05-05T09:11:12.760Z,55.18
2023-05-05T09:12:12.738Z,55.78
2023-05-05T09:13:12.757Z,55.41
2023-05-05T09:14:12.715Z,54.01
2023-05-05T09:15:12.706Z,53.89
2023-05-05T09:16:12.820Z,53.49
2023-05-05T09:17:17.693Z,53.99
2023-05-05T09:18:12.710Z,53.49
2023-05-05T09:19:12.660Z,52.86
2023-05-05T09:20:12.656Z,51.97
2023-05-05T09:21:12.639Z,52.17
2023-05-05T09:22:12.632Z,51.77
2023-05-05T09:23:12.610Z,53.16
2023-05-05T09:24:12.647Z,53.46
2023-05-05T09:25:12.631Z,53.76
2023-05-05T09:26:12.653Z,54.06
2023-05-05T09:27:12.561Z,53.99
2023-05-05T09:28:17.620Z,53.56
2023-05-05T09:29:12.644Z,52.84
2023-05-05T09:30:12.541Z,52.44
2023-05-05T09:31:12.604Z,53.04
2023-05-05T09:32:12.513Z,53.86
2023-05-05T09:33:12.642Z,53.66
2023-05-05T09:34:12.508Z,53.56
2023-05-05T09:35:12.481Z,52.67
2023-05-05T09:36:12.489Z,53.04
2023-05-05T09:37:12.459Z,51.92
2023-05-05T09:38:12.468Z,52.44
2023-05-05T09:39:17.589Z,51.95
2023-05-05T09:40:12.437Z,52.04
2023-05-05T09:41:12.409Z,51.82
2023-05-05T09:42:12.402Z,51.40
2023-05-05T09:43:12.409Z,50.01
2023-05-05T09:44:12.390Z,50.75
2023-05-05T09:45:12.386Z,50.33
2023-05-05T09:46:12.400Z,50.85
2023-05-05T09:47:25.994Z,50.45
2023-05-05T09:48:13.387Z,50.25
2023-05-05T09:49:12.336Z,50.73
2023-05-05T09:50:17.340Z,50.05
2023-05-05T09:51:12.301Z,51.37
2023-05-05T09:52:12.320Z,51.17
2023-05-05T09:53:12.276Z,51.77
2023-05-05T09:54:12.264Z,50.98
2023-05-05T09:55:12.345Z,50.05
2023-05-05T09:56:12.262Z,49.55
2023-05-05T09:57:12.241Z,48.54
2023-05-05T09:58:12.319Z,48.44
2023-05-05T09:59:12.209Z,49.41
2023-05-05T10:00:12.262Z,49.31
2023-05-05T10:01:17.256Z,47.92
2023-05-05T10:02:12.187Z,48.22
2023-05-05T10:03:12.164Z,48.32
2023-05-05T10:04:12.193Z,48.32
2023-05-05T10:05:12.213Z,48.34
2023-05-05T10:06:12.157Z,48.11
2023-05-05T10:07:12.156Z,48.52
2023-05-05T10:08:12.115Z,48.41
2023-05-05T10:09:12.102Z,49.91
2023-05-05T10:10:12.235Z,49.61
2023-05-05T10:11:12.101Z,49.41
2023-05-05T10:12:17.088Z,49.23
2023-05-05T10:13:12.155Z,49.95
2023-05-05T10:14:12.041Z,49.85
2023-05-05T10:15:12.025Z,49.66
2023-05-05T10:16:12.088Z,48.94
2023-05-05T10:17:12.007Z,49.33
2023-05-05T10:18:12.027Z,48.41
2023-05-05T10:19:11.991Z,48.61
2023-05-05T10:20:12.006Z,48.14
2023-05-05T10:21:11.974Z,48.76
2023-05-05T10:22:11.994Z,49.46
2023-05-05T10:23:16.961Z,49.66
2023-05-05T10:24:11.967Z,49.55
2023-05-05T10:25:11.934Z,49.85
2023-05-05T10:26:11.903Z,49.36
2023-05-05T10:27:12.729Z,50.05
2023-05-05T10:28:11.954Z,50.35
2023-05-05T10:29:11.871Z,48.86
2023-05-05T10:30:11.884Z,50.23
2023-05-05T10:31:24.247Z,50.40
2023-05-05T10:32:33.418Z,49.41
2023-05-05T10:33:30.419Z,49.71
2023-05-05T10:34:16.959Z,49.88
2023-05-05T10:35:11.821Z,50.08
2023-05-05T10:36:11.802Z,49.98
2023-05-05T10:37:11.791Z,49.96
2023-05-05T10:38:11.777Z,49.29
2023-05-05T10:39:11.784Z,48.59
2023-05-05T10:40:11.786Z,48.39
2023-05-05T10:41:11.756Z,49.91
2023-05-05T10:42:11.750Z,49.58
2023-05-05T10:43:11.816Z,49.88
2023-05-05T10:44:11.725Z,49.58
2023-05-05T10:45:16.767Z,49.49
2023-05-05T10:46:11.759Z,49.71
2023-05-05T10:47:11.704Z,51.45
2023-05-05T10:48:11.799Z,50.65
2023-05-05T10:49:13.095Z,50.73
2023-05-05T10:50:11.647Z,49.41
2023-05-05T10:51:11.637Z,49.43
2023-05-05T10:52:11.736Z,50.35
2023-05-05T10:53:11.629Z,49.63
2023-05-05T10:54:11.642Z,49.16
2023-05-05T10:55:11.597Z,49.76
2023-05-05T10:56:11.582Z,49.55
2023-05-05T10:57:11.575Z,50.08
2023-05-05T10:58:16.689Z,50.08
2023-05-05T10:59:11.576Z,49.38
2023-05-05T11:00:12.565Z,49.66
2023-05-05T11:01:11.631Z,49.95
2023-05-05T11:02:11.517Z,50.05
2023-05-05T11:03:11.586Z,49.76
2023-05-05T11:04:11.507Z,49.43
2023-05-05T11:05:11.482Z,49.55
2023-05-05T11:06:11.487Z,49.85
2023-05-05T11:07:14.662Z,50.63
2023-05-05T11:08:11.479Z,50.43
2023-05-05T11:09:16.460Z,50.45
2023-05-05T11:10:11.660Z,51.17
2023-05-05T11:11:11.422Z,50.85
2023-05-05T11:12:11.409Z,51.35
2023-05-05T11:13:11.424Z,51.45
2023-05-05T11:14:11.479Z,50.55
2023-05-05T11:15:11.378Z,51.22
2023-05-05T11:16:11.438Z,50.90
2023-05-05T11:17:11.371Z,51.32
2023-05-05T11:18:11.438Z,51.50
2023-05-05T11:19:11.339Z,50.20
2023-05-05T11:20:16.347Z,49.41
2023-05-05T11:21:11.315Z,50.10
2023-05-05T11:22:11.326Z,49.51
2023-05-05T11:23:11.296Z,49.71
2023-05-05T11:24:11.279Z,49.68
2023-05-05T11:25:11.263Z,50.08
2023-05-05T11:26:11.267Z,49.19
2023-05-05T11:27:11.248Z,49.38
2023-05-05T11:28:11.429Z,49.19
2023-05-05T11:29:11.216Z,49.49
2023-05-05T11:30:11.569Z,48.79
2023-05-05T11:31:16.253Z,49.38
2023-05-05T11:32:11.228Z,49.71
2023-05-05T11:33:11.203Z,49.31
2023-05-05T11:34:11.202Z,50.43
2023-05-05T11:35:11.175Z,50.43
2023-05-05T11:36:11.154Z,50.33
2023-05-05T11:37:11.140Z,50.50
2023-05-05T11:38:11.120Z,51.03
2023-05-05T11:39:11.112Z,51.10
2023-05-05T11:40:11.117Z,51.25
2023-05-05T11:41:11.098Z,51.75
2023-05-05T11:42:11.196Z,52.04
2023-05-05T11:43:11.064Z,51.32
2023-05-05T11:44:16.078Z,51.03
2023-05-05T11:45:11.037Z,51.62
2023-05-05T11:46:11.225Z,50.80
2023-05-05T11:47:11.031Z,51.00
2023-05-05T11:48:11.090Z,49.78
2023-05-05T11:49:11.001Z,49.56
2023-05-05T11:50:10.996Z,49.56
2023-05-05T11:51:10.982Z,48.65
2023-05-05T11:52:10.991Z,48.50
2023-05-05T11:53:10.950Z,47.36
2023-05-05T11:54:10.940Z,45.93
2023-05-05T11:55:15.963Z,45.79
2023-05-05T11:56:10.957Z,45.25
2023-05-05T11:57:10.952Z,44.48
2023-05-05T11:58:10.933Z,45.37
2023-05-05T11:59:10.891Z,44.10
2023-05-05T12:00:11.060Z,44.90
2023-05-05T12:01:10.873Z,44.31
2023-05-05T12:02:11.018Z,43.49
2023-05-05T12:03:10.915Z,43.27
2023-05-05T12:04:10.921Z,43.23
2023-05-05T12:05:10.898Z,42.30
2023-05-05T12:06:10.823Z,41.96
2023-05-05T12:07:10.801Z,40.27
2023-05-05T12:08:15.813Z,40.66
2023-05-05T12:09:10.784Z,40.47
2023-05-05T12:10:10.866Z,40.16
2023-05-05T12:11:10.783Z,40.17
2023-05-05T12:12:10.845Z,39.54
2023-05-05T12:13:10.752Z,39.34
2023-05-05T12:14:10.789Z,38.99
2023-05-05T12:15:10.727Z,39.54
2023-05-05T12:16:10.796Z,40.47
2023-05-05T12:17:10.697Z,40.48
2023-05-05T12:18:10.863Z,40.37
2023-05-05T12:19:15.812Z,39.25
2023-05-05T12:20:11.211Z,39.72
2023-05-05T12:21:10.655Z,39.52
2023-05-05T12:22:10.645Z,39.64
2023-05-05T12:23:10.635Z,38.64
2023-05-05T12:24:10.636Z,38.64
2023-05-05T12:25:10.630Z,38.68
2023-05-05T12:26:10.609Z,40.37
2023-05-05T12:27:10.593Z,40.39
2023-05-05T12:28:10.600Z,39.78
2023-05-05T12:29:10.696Z,40.11
2023-05-05T12:30:15.628Z,40.41
2023-05-05T12:31:10.579Z,40.64
2023-05-05T12:32:10.582Z,40.88
2023-05-05T12:33:10.544Z,42.29
2023-05-05T12:34:10.567Z,42.72
2023-05-05T12:35:10.516Z,43.63
2023-05-05T12:36:10.539Z,43.26
2023-05-05T12:37:10.498Z,44.24
2023-05-05T12:38:10.499Z,45.06
2023-05-05T12:39:10.472Z,45.28
2023-05-05T12:40:10.611Z,45.38
2023-05-05T12:41:15.477Z,46.00
2023-05-05T12:42:10.468Z,46.51
2023-05-05T12:43:10.562Z,46.81
2023-05-05T12:44:10.442Z,46.83
2023-05-05T12:45:10.402Z,47.23
2023-05-05T12:46:10.494Z,47.45
2023-05-05T12:47:10.395Z,47.33
2023-05-05T12:48:10.375Z,47.45
2023-05-05T12:49:10.362Z,48.14
2023-05-05T12:50:10.818Z,48.54
2023-05-05T12:51:10.343Z,48.47
2023-05-05T12:52:10.339Z,48.07
2023-05-05T12:53:10.325Z,48.27
2023-05-05T12:54:15.332Z,48.07
2023-05-05T12:55:10.431Z,47.97
2023-05-05T12:56:10.360Z,48.57
2023-05-05T12:57:10.280Z,48.59
2023-05-05T12:58:10.267Z,48.96
2023-05-05T12:59:10.276Z,48.69
2023-05-05T13:00:10.352Z,48.57
2023-05-05T13:01:10.261Z,48.59
2023-05-05T13:02:10.314Z,48.66
2023-05-05T13:03:10.288Z,48.47
2023-05-05T13:04:10.198Z,47.95
2023-05-05T13:05:10.419Z,47.55
2023-05-05T13:06:10.205Z,48.35
2023-05-05T13:07:15.209Z,48.07
2023-05-05T13:08:10.190Z,48.07
2023-05-05T13:09:10.181Z,47.97
2023-05-05T13:10:10.142Z,47.87
2023-05-05T13:11:10.130Z,48.10
2023-05-05T13:12:10.115Z,48.89
2023-05-05T13:13:10.133Z,48.79
2023-05-05T13:14:10.128Z,48.79
2023-05-05T13:15:10.306Z,48.61
2023-05-05T13:16:10.181Z,48.81
2023-05-05T13:17:10.052Z,48.69
2023-05-05T13:18:15.066Z,47.89
2023-05-05T13:19:10.062Z,48.39
2023-05-05T13:20:10.105Z,47.99
2023-05-05T13:21:10.008Z,47.60
2023-05-05T13:22:10.038Z,47.80
2023-05-05T13:23:09.990Z,47.20
2023-05-05T13:24:21.285Z,47.28
2023-05-05T13:25:11.219Z,47.08
2023-05-05T13:26:10.014Z,47.38
2023-05-05T13:27:09.948Z,47.25
2023-05-05T13:28:09.939Z,46.56
2023-05-05T13:29:14.959Z,47.08
2023-05-05T13:30:09.940Z,46.19
2023-05-05T13:31:09.920Z,47.38
2023-05-05T13:32:09.914Z,46.88
2023-05-05T13:33:09.913Z,47.57
2023-05-05T13:34:09.878Z,48.07
2023-05-05T13:35:10.077Z,48.07
2023-05-05T13:36:09.883Z,48.17
2023-05-05T13:37:09.837Z,47.28
2023-05-05T13:38:10.019Z,46.88
2023-05-05T13:39:09.863Z,47.28
2023-05-05T13:40:14.842Z,47.38
2023-05-05T13:41:09.801Z,46.88
2023-05-05T13:42:09.784Z,47.28
2023-05-05T13:43:09.767Z,46.88
2023-05-05T13:44:09.785Z,46.68
2023-05-05T13:45:09.913Z,47.57
2023-05-05T13:46:19.143Z,47.08
2023-05-05T13:47:09.763Z,48.27
2023-05-05T13:48:09.785Z,47.57
2023-05-05T13:49:09.732Z,48.19
2023-05-05T13:50:09.724Z,48.27
2023-05-05T13:51:14.719Z,48.07
2023-05-05T13:52:09.672Z,47.87
2023-05-05T13:53:09.671Z,47.89
2023-05-05T13:54:09.754Z,47.97
2023-05-05T13:55:09.908Z,47.97
2023-05-05T13:56:09.628Z,48.17
2023-05-05T13:57:09.640Z,47.97
2023-05-05T13:58:09.616Z,48.47
2023-05-05T13:59:09.598Z,47.77
2023-05-05T14:00:09.609Z,48.27
2023-05-05T14:01:09.655Z,48.37
2023-05-05T14:02:14.609Z,48.27
2023-05-05T14:03:09.581Z,47.97
2023-05-05T14:04:09.577Z,48.27
2023-05-05T14:05:09.669Z,48.17
2023-05-05T14:06:09.528Z,48.39
2023-05-05T14:07:09.533Z,48.29
2023-05-05T14:08:09.499Z,48.71
2023-05-05T14:09:09.512Z,48.41
2023-05-05T14:10:09.631Z,48.91
2023-05-05T14:11:09.485Z,48.89
2023-05-05T14:12:09.479Z,48.89
2023-05-05T14:13:14.578Z,48.69
2023-05-05T14:14:09.456Z,48.59
2023-05-05T14:15:09.709Z,48.52
2023-05-05T14:16:09.458Z,48.91
2023-05-05T14:17:09.412Z,48.49
2023-05-05T14:18:09.406Z,48.39
2023-05-05T14:19:09.379Z,48.79
2023-05-05T14:20:09.370Z,49.01
2023-05-05T14:21:09.409Z,49.21
2023-05-05T14:22:09.382Z,48.41
2023-05-05T14:23:09.351Z,49.21
2023-05-05T14:24:14.379Z,49.41
2023-05-05T14:25:09.509Z,49.41
2023-05-05T14:26:09.423Z,49.41
2023-05-05T14:27:09.311Z,49.21
2023-05-05T14:28:09.278Z,49.63
2023-05-05T14:29:09.284Z,49.43
2023-05-05T14:30:09.274Z,49.63
2023-05-05T14:31:09.263Z,50.13
2023-05-05T14:32:09.407Z,50.65
2023-05-05T14:33:09.237Z,50.27
2023-05-05T14:34:09.258Z,50.27
2023-05-05T14:35:14.244Z,50.27
2023-05-05T14:36:09.198Z,49.98
2023-05-05T14:37:09.197Z,49.76
2023-05-05T14:38:09.196Z,50.05
2023-05-05T14:39:09.160Z,50.65
2023-05-05T14:40:09.168Z,50.25
2023-05-05T14:41:09.150Z,50.35
2023-05-05T14:42:09.149Z,50.33
2023-05-05T14:43:09.121Z,49.95
2023-05-05T14:44:09.114Z,49.76
2023-05-05T14:45:09.339Z,50.65
2023-05-05T14:46:14.146Z,50.55
2023-05-05T14:47:09.102Z,50.57
2023-05-05T14:48:09.066Z,50.38
2023-05-05T14:49:09.062Z,50.68
2023-05-05T14:50:09.043Z,50.38
2023-05-05T14:51:09.046Z,50.50
2023-05-05T14:52:09.016Z,50.90
2023-05-05T14:53:09.040Z,51.10
2023-05-05T14:54:20.466Z,51.20
2023-05-05T14:55:09.323Z,50.90
2023-05-05T14:56:08.969Z,50.80
2023-05-05T14:57:14.073Z,50.90
2023-05-05T14:58:08.962Z,50.80
2023-05-05T14:59:08.987Z,50.70
2023-05-05T15:00:08.932Z,51.10
2023-05-05T15:01:08.953Z,50.92
2023-05-05T15:02:08.915Z,51.22
2023-05-05T15:03:09.005Z,50.92
2023-05-05T15:04:08.893Z,50.82
2023-05-05T15:05:09.053Z,50.62
2023-05-05T15:06:08.886Z,51.12
2023-05-05T15:07:08.850Z,51.82
2023-05-05T15:08:13.875Z,52.72
2023-05-05T15:09:08.833Z,52.42
2023-05-05T15:10:08.896Z,52.62
2023-05-05T15:11:08.847Z,54.24
2023-05-05T15:12:08.804Z,54.34
2023-05-05T15:13:08.990Z,54.64
2023-05-05T15:14:08.787Z,55.04
2023-05-05T15:15:09.094Z,55.63
2023-05-05T15:16:08.799Z,55.16
2023-05-05T15:17:08.766Z,55.56
2023-05-05T15:18:08.731Z,56.26
2023-05-05T15:19:13.740Z,57.78
2023-05-05T15:20:08.707Z,58.68
2023-05-05T15:21:08.700Z,58.18
2023-05-05T15:22:08.699Z,58.81
2023-05-05T15:23:08.709Z,58.51
2023-05-05T15:24:08.663Z,60.44
2023-05-05T15:25:08.888Z,60.74
2023-05-05T15:26:08.655Z,62.06
2023-05-05T15:27:08.641Z,62.16
2023-05-05T15:28:08.618Z,62.89
2023-05-05T15:29:08.831Z,64.09
2023-05-05T15:30:13.628Z,65.52
2023-05-05T15:31:08.596Z,65.12
2023-05-05T15:32:08.613Z,65.25
2023-05-05T15:33:08.561Z,65.36
2023-05-05T15:34:08.556Z,63.45
2023-05-05T15:35:08.759Z,64.78
2023-05-05T15:36:08.538Z,63.98
2023-05-05T15:37:08.533Z,62.85
2023-05-05T15:38:08.506Z,63.45
2023-05-05T15:39:08.494Z,62.68
2023-05-05T15:40:08.526Z,63.15
2023-05-05T15:41:13.528Z,62.98
2023-05-05T15:42:08.470Z,62.05
2023-05-05T15:43:08.448Z,61.28
2023-05-05T15:44:08.437Z,61.58
2023-05-05T15:45:08.756Z,60.08
2023-05-05T15:46:08.415Z,60.08
2023-05-05T15:47:08.522Z,60.38
2023-05-05T15:48:08.471Z,60.08
2023-05-05T15:49:08.382Z,60.38
2023-05-05T15:50:08.382Z,60.35
2023-05-05T15:51:08.365Z,60.18
2023-05-05T15:52:13.370Z,60.45
2023-05-05T15:53:08.355Z,60.05
2023-05-05T15:54:08.327Z,60.45
2023-05-05T15:55:08.659Z,59.98
2023-05-05T15:56:08.310Z,59.95
2023-05-05T15:57:08.308Z,60.05
2023-05-05T15:58:08.288Z,59.48
2023-05-05T15:59:08.308Z,59.95
2023-05-05T16:00:08.357Z,59.35
2023-05-05T16:01:08.416Z,58.95
2023-05-05T16:02:08.278Z,58.87
2023-05-05T16:03:13.360Z,59.15
2023-05-05T16:04:08.259Z,59.08
2023-05-05T16:05:08.448Z,58.28
2023-05-05T16:06:08.196Z,58.68
2023-05-05T16:07:08.189Z,58.98
2023-05-05T16:08:08.177Z,59.81
2023-05-05T16:09:08.191Z,60.71
2023-05-05T16:10:08.149Z,60.81
2023-05-05T16:11:08.148Z,62.21
2023-05-05T16:12:08.132Z,62.71
2023-05-05T16:13:08.196Z,64.45
2023-05-05T16:14:13.142Z,65.68
2023-05-05T16:15:08.400Z,67.11
2023-05-05T16:16:08.088Z,69.09
2023-05-05T16:17:08.222Z,71.43
2023-05-05T16:18:08.190Z,73.58
2023-05-05T16:19:08.068Z,75.38
2023-05-05T16:20:08.068Z,75.76
2023-05-05T16:21:08.046Z,77.27
2023-05-05T16:22:08.024Z,77.70
2023-05-05T16:23:08.031Z,78.05
2023-05-05T16:24:07.999Z,78.15
2023-05-05T16:25:13.011Z,77.84
2023-05-05T16:26:07.976Z,79.05
2023-05-05T16:27:07.973Z,77.78
2023-05-05T16:28:07.980Z,77.98
2023-05-05T16:29:07.961Z,77.98
2023-05-05T16:30:07.934Z,78.35
2023-05-05T16:31:07.920Z,78.35
2023-05-05T16:32:07.919Z,77.84
2023-05-05T16:33:08.156Z,77.04
2023-05-05T16:34:07.893Z,77.78
2023-05-05T16:35:08.052Z,78.59
2023-05-05T16:36:12.888Z,79.36
2023-05-05T16:37:07.863Z,78.39
2023-05-05T16:38:07.921Z,78.35
2023-05-05T16:39:07.848Z,77.88
2023-05-05T16:40:07.819Z,77.44
2023-05-05T16:41:07.871Z,77.24
2023-05-05T16:42:07.835Z,77.75
2023-05-05T16:43:07.804Z,77.14
2023-05-05T16:44:07.826Z,77.38
2023-05-05T16:45:08.069Z,77.75
2023-05-05T16:46:07.778Z,78.69
2023-05-05T16:47:12.903Z,77.78
2023-05-05T16:48:09.231Z,76.54
2023-05-05T16:49:07.815Z,76.03
2023-05-05T16:50:07.708Z,76.64
2023-05-05T16:51:07.702Z,76.94
2023-05-05T16:52:07.711Z,76.03
2023-05-05T16:53:07.685Z,76.54
2023-05-05T16:54:07.662Z,76.54
2023-05-05T16:55:07.898Z,75.73
2023-05-05T16:56:07.637Z,76.54
2023-05-05T16:57:07.646Z,77.75
2023-05-05T16:58:12.644Z,76.34
2023-05-05T16:59:07.612Z,76.14
2023-05-05T17:00:07.604Z,77.14
2023-05-05T17:01:07.581Z,77.31
2023-05-05T17:02:07.719Z,78.31
2023-05-05T17:03:07.566Z,76.80
2023-05-05T17:04:08.456Z,77.91
2023-05-05T17:05:08.070Z,78.01
2023-05-05T17:06:07.536Z,78.01
2023-05-05T17:07:07.550Z,77.40
2023-05-05T17:08:07.503Z,76.87
2023-05-05T17:09:12.514Z,76.40
2023-05-05T17:10:07.485Z,76.87
2023-05-05T17:11:08.497Z,76.76
2023-05-05T17:12:07.473Z,76.70
2023-05-05T17:13:07.490Z,77.11
2023-05-05T17:14:07.461Z,77.77
2023-05-05T17:15:07.543Z,77.70
2023-05-05T17:16:07.446Z,77.57
2023-05-05T17:17:07.413Z,78.67
2023-05-05T17:18:07.445Z,78.41
2023-05-05T17:19:07.387Z,77.67
2023-05-05T17:20:12.426Z,77.57
2023-05-05T17:21:07.372Z,77.77
2023-05-05T17:22:07.351Z,78.17
2023-05-05T17:23:07.337Z,76.97
2023-05-05T17:24:07.320Z,76.46
2023-05-05T17:25:07.495Z,76.76
2023-05-05T17:26:07.309Z,75.76
2023-05-05T17:27:07.296Z,75.96
2023-05-05T17:28:07.282Z,76.76
2023-05-05T17:29:07.265Z,76.97
2023-05-05T17:30:07.268Z,76.87
2023-05-05T17:31:12.278Z,77.07
2023-05-05T17:32:07.332Z,76.67
2023-05-05T17:33:07.280Z,77.07
2023-05-05T17:34:07.276Z,76.46
2023-05-05T17:35:07.590Z,76.76
2023-05-05T17:36:07.311Z,76.46
2023-05-05T17:37:07.191Z,76.87
2023-05-05T17:38:07.167Z,77.17
2023-05-05T17:39:07.164Z,76.97
2023-05-05T17:40:07.151Z,76.46
2023-05-05T17:41:07.162Z,76.56
2023-05-05T17:42:12.151Z,76.76
2023-05-05T17:43:07.124Z,76.87
2023-05-05T17:44:07.111Z,76.76
2023-05-05T17:45:07.428Z,76.26
2023-05-05T17:46:07.119Z,76.67